Agoura, California
Current Conditions -  °F | °C
As of 7:51 AM on Friday 21 Nov 2014 (Local Time) from KVNY Reporting Station
Clear Clear  
Wind Chill: 60°   Ceiling: Unl
Heat Index: 60°   Visibility: 10mi
Dew Point: 44°   Wind: 0mph
Humidity: 55%   Direction: NA
Pressure: 29.97"   Gusts: NA
Location:  34.1232°N, 118.77°W
Report Text: KVNY 211551Z 00000KT 10SM CLR 16/07 A2997 RMK AO2 SLP145 T01560067
Loading
Personal Weather Stations






























Interactive Weather Map New forecast layout! Learn more

10-Day Weather Forecast

Advertisements
Track Severe Weather on mobile